createdAt,value
2018-06-25T00:00:51.539Z,78.40
2018-06-25T00:03:24.661Z,77.30
2018-06-25T00:05:57.663Z,78.40
2018-06-25T00:08:30.616Z,78.50
2018-06-25T00:11:03.615Z,77.20
2018-06-25T00:13:37.171Z,78.30
2018-06-25T00:16:10.131Z,78.80
2018-06-25T00:18:43.263Z,76.80
2018-06-25T00:21:17.092Z,78.10
2018-06-25T00:23:50.181Z,78.50
2018-06-25T00:26:23.717Z,77.20
2018-06-25T00:28:56.861Z,78.20
2018-06-25T00:31:30.238Z,78.80
2018-06-25T00:34:03.274Z,77.00
2018-06-25T00:36:36.294Z,75.70
2018-06-25T00:39:12.835Z,78.40
2018-06-25T00:41:45.905Z,79.20
2018-06-25T00:44:19.071Z,75.20
2018-06-25T00:46:52.169Z,73.10
2018-06-25T00:49:25.268Z,73.60
2018-06-25T00:51:58.347Z,73.60
2018-06-25T00:54:31.360Z,74.30
2018-06-25T00:57:04.521Z,75.00
2018-06-25T00:59:46.461Z,75.30
2018-06-25T01:02:19.613Z,75.50
2018-06-25T01:04:53.136Z,75.50
2018-06-25T01:07:26.147Z,75.60
2018-06-25T01:09:59.461Z,75.60
2018-06-25T01:12:32.543Z,75.70
2018-06-25T01:15:05.670Z,75.80
2018-06-25T01:17:38.973Z,76.00
2018-06-25T01:20:12.033Z,76.00
2018-06-25T01:22:44.985Z,76.10
2018-06-25T01:25:17.977Z,76.10
2018-06-25T01:30:23.093Z,76.10
2018-06-25T01:32:56.142Z,76.00
2018-06-25T01:35:29.196Z,76.10
2018-06-25T01:38:02.217Z,76.10
2018-06-25T01:43:07.244Z,76.10
2018-06-25T01:45:40.361Z,76.00
2018-06-25T01:48:13.381Z,76.00
2018-06-25T01:50:46.360Z,76.10
2018-06-25T01:53:20.408Z,76.20
2018-06-25T01:55:53.383Z,76.20
2018-06-25T01:58:26.440Z,76.30
2018-06-25T02:00:59.473Z,76.40
2018-06-25T02:03:32.479Z,76.60
2018-06-25T02:08:39.204Z,76.70
2018-06-25T02:11:13.141Z,76.80
2018-06-25T02:13:46.157Z,76.70
2018-06-25T02:16:19.258Z,76.70
2018-06-25T02:21:24.461Z,77.20
2018-06-25T02:23:57.920Z,77.50
2018-06-25T02:26:30.991Z,78.50
2018-06-25T02:29:03.975Z,79.00
2018-06-25T02:31:37.070Z,79.10
2018-06-25T02:34:11.371Z,79.70
2018-06-25T02:36:44.462Z,79.90
2018-06-25T02:39:17.544Z,80.00
2018-06-25T02:41:50.588Z,79.70
2018-06-25T02:44:23.748Z,79.70
2018-06-25T02:46:56.868Z,79.80
2018-06-25T02:49:30.437Z,79.80
2018-06-25T02:52:03.599Z,79.70
2018-06-25T02:54:36.716Z,79.50
2018-06-25T02:57:09.709Z,79.20
2018-06-25T02:59:42.797Z,79.50
2018-06-25T03:02:15.771Z,79.40
2018-06-25T03:04:48.788Z,79.30
2018-06-25T03:07:21.789Z,79.50
2018-06-25T03:09:56.032Z,79.50
2018-06-25T03:12:30.185Z,79.70
2018-06-25T03:15:03.584Z,79.30
2018-06-25T03:17:36.621Z,79.20
2018-06-25T03:20:10.555Z,79.20
2018-06-25T03:22:43.604Z,79.10
2018-06-25T03:25:16.708Z,79.10
2018-06-25T03:27:49.805Z,78.90
2018-06-25T03:30:22.859Z,78.90
2018-06-25T03:32:55.914Z,79.00
2018-06-25T03:35:28.918Z,79.00
2018-06-25T03:38:02.012Z,78.80
2018-06-25T03:40:35.082Z,79.00
2018-06-25T03:43:08.346Z,78.90
2018-06-25T03:45:41.429Z,78.70
2018-06-25T03:48:14.553Z,78.90
2018-06-25T03:50:47.613Z,78.80
2018-06-25T03:53:20.652Z,78.70
2018-06-25T03:55:53.814Z,78.70
2018-06-25T03:58:27.069Z,78.60
2018-06-25T04:01:00.256Z,78.50
2018-06-25T04:03:34.157Z,78.70
2018-06-25T04:06:07.208Z,78.50
2018-06-25T04:08:41.168Z,78.60
2018-06-25T04:11:14.265Z,78.70
2018-06-25T04:13:47.391Z,78.60
2018-06-25T04:16:20.673Z,78.50
2018-06-25T04:18:57.269Z,78.50
2018-06-25T04:21:30.281Z,78.40
2018-06-25T04:24:03.526Z,78.40
2018-06-25T04:26:36.668Z,78.30
2018-06-25T04:29:10.731Z,78.30
2018-06-25T04:31:43.676Z,78.30
2018-06-25T04:34:16.751Z,78.20
2018-06-25T04:36:49.820Z,78.20
2018-06-25T04:39:22.862Z,78.20
2018-06-25T04:41:56.112Z,78.10
2018-06-25T04:44:29.185Z,78.20
2018-06-25T04:47:02.177Z,78.10
2018-06-25T04:49:36.613Z,78.00
2018-06-25T04:52:09.733Z,77.90
2018-06-25T04:54:43.053Z,77.90
2018-06-25T04:57:16.052Z,77.80
2018-06-25T04:59:49.104Z,77.80
2018-06-25T05:02:22.037Z,77.70
2018-06-25T05:04:55.084Z,77.70
2018-06-25T05:07:28.201Z,77.70
2018-06-25T05:10:01.493Z,77.50
2018-06-25T05:12:34.782Z,77.40
2018-06-25T05:15:07.867Z,77.40
2018-06-25T05:17:40.888Z,77.20
2018-06-25T05:20:13.981Z,77.10
2018-06-25T05:22:47.003Z,77.10
2018-06-25T05:25:22.961Z,77.00
2018-06-25T05:27:56.049Z,76.50
2018-06-25T05:30:29.040Z,76.40
2018-06-25T05:33:02.145Z,76.20
2018-06-25T05:35:35.076Z,75.80
2018-06-25T05:38:08.312Z,76.00
2018-06-25T05:40:41.933Z,76.00
2018-06-25T05:43:14.978Z,76.00
2018-06-25T05:45:48.064Z,76.00
2018-06-25T05:48:22.092Z,75.60
2018-06-25T05:50:55.564Z,75.70
2018-06-25T05:53:28.687Z,76.00
2018-06-25T05:56:02.116Z,75.50
2018-06-25T05:58:35.268Z,75.40
2018-06-25T06:01:08.346Z,75.60
2018-06-25T06:03:41.369Z,75.30
2018-06-25T06:06:14.491Z,75.80
2018-06-25T06:08:47.643Z,75.40
2018-06-25T06:11:20.579Z,75.60
2018-06-25T06:13:53.639Z,75.30
2018-06-25T06:16:27.148Z,75.30
2018-06-25T06:19:00.234Z,75.20
2018-06-25T06:21:34.633Z,75.10
2018-06-25T06:24:07.652Z,75.60
2018-06-25T06:26:40.748Z,75.20
2018-06-25T06:29:13.912Z,75.20
2018-06-25T06:31:46.986Z,75.10
2018-06-25T06:36:52.693Z,75.20
2018-06-25T06:39:25.807Z,74.90
2018-06-25T06:41:58.901Z,75.10
2018-06-25T06:44:32.028Z,75.00
2018-06-25T06:47:06.465Z,74.90
2018-06-25T06:49:39.543Z,74.90
2018-06-25T06:52:13.112Z,75.20
2018-06-25T06:54:46.234Z,75.30
2018-06-25T06:57:19.195Z,75.10
2018-06-25T06:59:52.271Z,74.90
2018-06-25T07:04:57.039Z,75.70
2018-06-25T07:07:30.109Z,74.90
2018-06-25T07:10:03.225Z,75.20
2018-06-25T07:12:36.266Z,75.30
2018-06-25T07:15:13.216Z,75.70
2018-06-25T07:17:46.402Z,75.80
2018-06-25T07:20:19.974Z,75.90
2018-06-25T07:22:53.005Z,75.90
2018-06-25T07:25:26.079Z,76.10
2018-06-25T07:27:59.096Z,76.50
2018-06-25T07:30:32.596Z,75.80
2018-06-25T07:33:05.595Z,75.90
2018-06-25T07:35:38.635Z,75.80
2018-06-25T07:38:11.608Z,75.90
2018-06-25T07:40:44.600Z,76.00
2018-06-25T07:43:17.882Z,76.40
2018-06-25T07:45:50.868Z,76.50
2018-06-25T07:48:25.076Z,76.20
2018-06-25T07:50:58.101Z,76.60
2018-06-25T07:53:31.140Z,76.50
2018-06-25T07:56:04.257Z,77.40
2018-06-25T07:58:37.364Z,76.80
2018-06-25T08:01:11.144Z,77.30
2018-06-25T08:03:44.219Z,77.00
2018-06-25T08:06:17.335Z,77.20
2018-06-25T08:08:50.303Z,77.20
2018-06-25T08:11:23.473Z,77.60
2018-06-25T08:13:58.218Z,77.30
2018-06-25T08:16:31.320Z,77.10
2018-06-25T08:19:04.376Z,77.30
2018-06-25T08:21:37.419Z,77.70
2018-06-25T08:24:10.500Z,77.40
2018-06-25T08:26:45.087Z,77.00
2018-06-25T08:29:19.128Z,77.30
2018-06-25T08:31:52.111Z,77.60
2018-06-25T08:34:25.356Z,77.20
2018-06-25T08:36:58.529Z,77.00
2018-06-25T08:39:32.715Z,77.00
2018-06-25T08:42:05.705Z,76.90
2018-06-25T08:44:38.842Z,76.90
2018-06-25T08:47:12.035Z,76.70
2018-06-25T08:49:45.060Z,76.60
2018-06-25T08:52:18.152Z,76.50
2018-06-25T08:54:51.131Z,76.40
2018-06-25T08:57:24.484Z,76.30
2018-06-25T08:59:57.434Z,75.90
2018-06-25T09:02:31.146Z,75.70
2018-06-25T09:05:04.148Z,75.70
2018-06-25T09:07:38.187Z,75.50
2018-06-25T09:12:42.872Z,75.70
2018-06-25T09:15:15.947Z,75.40
2018-06-25T09:17:49.108Z,75.60
2018-06-25T09:20:22.221Z,75.50
2018-06-25T09:22:55.461Z,75.40
2018-06-25T09:25:28.474Z,75.40
2018-06-25T09:30:40.973Z,75.50
2018-06-25T09:33:13.913Z,75.50
2018-06-25T09:35:47.766Z,75.50
2018-06-25T09:38:20.925Z,75.60
2018-06-25T09:40:54.054Z,75.60
2018-06-25T09:43:27.202Z,75.50
2018-06-25T09:46:00.348Z,75.70
2018-06-25T09:48:34.339Z,75.60
2018-06-25T09:51:07.373Z,75.70
2018-06-25T09:53:40.979Z,75.60
2018-06-25T09:56:13.962Z,75.60
2018-06-25T09:58:47.008Z,75.60
2018-06-25T10:01:20.104Z,75.60
2018-06-25T10:03:53.243Z,75.60
2018-06-25T10:06:26.549Z,75.60
2018-06-25T10:08:59.543Z,75.50
2018-06-25T10:11:32.688Z,75.50
2018-06-25T10:14:05.828Z,75.30
2018-06-25T10:16:38.832Z,75.40
2018-06-25T10:19:12.013Z,75.50
2018-06-25T10:21:45.114Z,75.60
2018-06-25T10:24:19.781Z,75.50
2018-06-25T10:26:52.805Z,75.50
2018-06-25T10:29:25.876Z,75.50
2018-06-25T10:31:59.721Z,75.50
2018-06-25T10:34:32.718Z,75.40
2018-06-25T10:37:07.328Z,75.40
2018-06-25T10:39:40.513Z,75.50
2018-06-25T10:42:13.646Z,75.60
2018-06-25T10:44:46.684Z,75.70
2018-06-25T10:47:19.644Z,75.70
2018-06-25T10:49:52.916Z,75.80
2018-06-25T10:52:25.976Z,75.90
2018-06-25T10:54:59.020Z,76.00
2018-06-25T10:57:32.049Z,76.00
2018-06-25T11:00:05.296Z,76.00
2018-06-25T11:02:38.556Z,76.00
2018-06-25T11:05:11.630Z,76.10
2018-06-25T11:07:44.728Z,76.00
2018-06-25T11:10:17.971Z,76.00
2018-06-25T11:12:50.992Z,76.00
2018-06-25T11:15:25.742Z,76.00
2018-06-25T11:17:58.737Z,76.10
2018-06-25T11:20:31.828Z,76.00
2018-06-25T11:23:04.877Z,76.10
2018-06-25T11:25:37.970Z,76.40
2018-06-25T11:28:11.085Z,76.40
2018-06-25T11:30:44.176Z,76.50
2018-06-25T11:33:17.481Z,76.40
2018-06-25T11:35:50.632Z,76.60
2018-06-25T11:38:23.685Z,76.40
2018-06-25T11:40:56.752Z,76.50
2018-06-25T11:43:29.790Z,76.50
2018-06-25T11:46:02.840Z,76.50
2018-06-25T11:48:35.970Z,76.60
2018-06-25T11:51:09.082Z,76.60
2018-06-25T11:53:42.118Z,76.60
2018-06-25T11:56:15.136Z,76.70
2018-06-25T11:58:48.206Z,76.60
2018-06-25T12:01:21.293Z,76.60
2018-06-25T12:03:54.363Z,76.70
2018-06-25T12:06:27.370Z,76.70
2018-06-25T12:09:00.421Z,76.90
2018-06-25T12:11:33.491Z,76.90
2018-06-25T12:14:06.524Z,76.90
2018-06-25T12:16:40.326Z,76.80
2018-06-25T12:19:13.394Z,77.00
2018-06-25T12:21:46.736Z,77.00
2018-06-25T12:24:19.887Z,76.90
2018-06-25T12:26:54.219Z,76.90
2018-06-25T12:29:27.490Z,77.00
2018-06-25T12:32:00.533Z,77.00
2018-06-25T12:34:33.626Z,76.80
2018-06-25T12:37:06.700Z,77.00
2018-06-25T12:39:39.689Z,77.00
2018-06-25T12:42:13.457Z,77.00
2018-06-25T12:44:46.437Z,77.10
2018-06-25T12:47:19.552Z,77.00
2018-06-25T12:49:53.493Z,77.00
2018-06-25T12:52:26.535Z,77.00
2018-06-25T12:55:02.149Z,77.10
2018-06-25T12:57:35.890Z,77.00
2018-06-25T13:00:09.016Z,77.00
2018-06-25T13:02:42.931Z,77.00
2018-06-25T13:05:16.019Z,76.80
2018-06-25T13:07:50.555Z,77.10
2018-06-25T13:10:23.700Z,77.30
2018-06-25T13:12:58.363Z,77.00
2018-06-25T13:15:31.388Z,77.00
2018-06-25T13:18:04.454Z,77.10
2018-06-25T13:20:37.459Z,77.10
2018-06-25T13:23:11.163Z,77.00
2018-06-25T13:25:45.996Z,77.00
2018-06-25T13:28:19.037Z,77.10
2018-06-25T13:30:52.132Z,77.00
2018-06-25T13:33:25.197Z,76.90
2018-06-25T13:35:58.328Z,77.00
2018-06-25T13:38:31.412Z,76.90
2018-06-25T13:41:04.466Z,77.00
2018-06-25T13:43:37.497Z,76.90
2018-06-25T13:46:10.852Z,76.90
2018-06-25T13:48:43.880Z,76.90
2018-06-25T13:51:17.150Z,76.90
2018-06-25T13:53:50.197Z,76.90
2018-06-25T13:56:23.321Z,76.90
2018-06-25T13:58:56.785Z,77.10
2018-06-25T14:01:29.800Z,76.90
2018-06-25T14:04:03.257Z,77.80
2018-06-25T14:06:37.166Z,77.10
2018-06-25T14:09:13.336Z,77.10
2018-06-25T14:11:46.413Z,77.10
2018-06-25T14:14:19.598Z,77.10
2018-06-25T14:16:53.109Z,77.10
2018-06-25T14:19:26.279Z,77.20
2018-06-25T14:22:01.500Z,77.10
2018-06-25T14:24:39.620Z,77.00
2018-06-25T14:27:13.938Z,77.10
2018-06-25T14:29:47.887Z,77.00
2018-06-25T14:32:25.541Z,77.00
2018-06-25T14:35:02.828Z,77.20
2018-06-25T14:37:36.874Z,77.00
2018-06-25T14:40:09.941Z,77.20
2018-06-25T14:42:43.599Z,77.20
2018-06-25T14:45:17.158Z,77.40
2018-06-25T14:47:50.313Z,77.30
2018-06-25T14:50:23.380Z,77.20
2018-06-25T14:52:56.362Z,77.40
2018-06-25T14:55:29.485Z,77.50
2018-06-25T14:58:02.595Z,77.40
2018-06-25T15:00:36.575Z,77.40
2018-06-25T15:03:09.670Z,77.70
2018-06-25T15:05:42.581Z,77.50
2018-06-25T15:08:16.490Z,77.50
2018-06-25T15:10:50.671Z,77.60
2018-06-25T15:13:23.779Z,77.60
2018-06-25T15:15:57.895Z,77.50
2018-06-25T15:18:30.946Z,77.60
2018-06-25T15:21:04.046Z,77.70
2018-06-25T15:23:38.864Z,77.80
2018-06-25T15:28:44.440Z,77.70
2018-06-25T15:31:17.526Z,77.60
2018-06-25T15:33:50.600Z,77.70
2018-06-25T15:36:23.589Z,77.60
2018-06-25T15:38:56.595Z,77.60
2018-06-25T15:41:29.647Z,77.60
2018-06-25T15:44:03.384Z,77.70
2018-06-25T15:46:37.065Z,77.70
2018-06-25T15:49:10.144Z,77.80
2018-06-25T15:51:43.200Z,77.80
2018-06-25T15:54:16.266Z,77.90
2018-06-25T15:56:49.297Z,73.30
2018-06-25T15:59:22.360Z,70.40
2018-06-25T16:01:55.407Z,67.70
2018-06-25T16:04:29.734Z,64.80
2018-06-25T16:07:02.824Z,62.90
2018-06-25T16:09:36.028Z,60.50
2018-06-25T16:12:09.219Z,63.20
2018-06-25T16:14:42.264Z,65.80
2018-06-25T16:17:15.347Z,68.00
2018-06-25T16:19:48.400Z,64.40
2018-06-25T16:22:21.612Z,62.20
2018-06-25T16:24:54.661Z,65.30
2018-06-25T16:27:27.867Z,67.20
2018-06-25T16:32:35.741Z,63.60
2018-06-25T16:35:08.798Z,65.00
2018-06-25T16:37:41.860Z,67.60
2018-06-25T16:40:14.945Z,69.10
2018-06-25T16:42:47.961Z,65.20
2018-06-25T16:45:21.033Z,63.80
2018-06-25T16:47:54.090Z,67.00
2018-06-25T16:50:27.201Z,68.90
2018-06-25T16:53:00.359Z,67.60
2018-06-25T16:55:33.436Z,68.50
2018-06-25T16:58:06.492Z,70.10
2018-06-25T17:00:39.584Z,71.40
2018-06-25T17:03:12.714Z,67.70
2018-06-25T17:08:17.397Z,71.40
2018-06-25T17:10:51.746Z,70.80
2018-06-25T17:13:24.772Z,68.20
2018-06-25T17:15:57.840Z,70.70
2018-06-25T17:18:30.850Z,72.10
2018-06-25T17:21:03.879Z,69.70
2018-06-25T17:23:37.291Z,70.00
2018-06-25T17:26:10.416Z,71.40
2018-06-25T17:28:43.425Z,73.30
2018-06-25T17:31:18.105Z,69.10
2018-06-25T17:33:51.129Z,71.00
2018-06-25T17:36:25.683Z,72.40
2018-06-25T17:38:59.267Z,72.40
2018-06-25T17:41:33.018Z,69.90
2018-06-25T17:44:06.814Z,72.30
2018-06-25T17:46:40.611Z,73.50
2018-06-25T17:49:15.218Z,72.00
2018-06-25T17:51:49.980Z,73.50
2018-06-25T17:54:23.656Z,74.60
2018-06-25T17:56:57.762Z,73.50
2018-06-25T17:59:30.952Z,74.40
2018-06-25T18:02:04.450Z,75.60
2018-06-25T18:04:37.312Z,74.80
2018-06-25T18:09:42.174Z,75.70
2018-06-25T18:12:16.278Z,76.20
2018-06-25T18:14:49.856Z,74.50
2018-06-25T18:17:23.702Z,75.90
2018-06-25T18:19:59.435Z,76.70
2018-06-25T18:22:32.602Z,75.00
2018-06-25T18:25:05.845Z,76.20
2018-06-25T18:27:38.936Z,76.60
2018-06-25T18:30:12.461Z,73.80
2018-06-25T18:32:46.550Z,75.10
2018-06-25T18:35:19.751Z,76.30
2018-06-25T18:37:53.497Z,75.90
2018-06-25T18:40:26.487Z,76.30
2018-06-25T18:42:59.909Z,77.00
2018-06-25T18:45:33.061Z,76.90
2018-06-25T18:48:06.176Z,75.50
2018-06-25T18:50:39.202Z,76.80
2018-06-25T18:53:13.115Z,77.30
2018-06-25T18:55:46.065Z,76.30
2018-06-25T18:58:20.167Z,76.60
2018-06-25T19:00:53.204Z,77.50
2018-06-25T19:03:26.218Z,77.40
2018-06-25T19:05:59.124Z,76.70
2018-06-25T19:08:32.237Z,77.60
2018-06-25T19:11:05.954Z,77.90
2018-06-25T19:13:40.871Z,76.10
2018-06-25T19:16:14.590Z,77.20
2018-06-25T19:18:47.551Z,77.90
2018-06-25T19:21:20.513Z,76.00
2018-06-25T19:23:53.628Z,77.40
2018-06-25T19:26:26.615Z,78.10
2018-06-25T19:28:59.769Z,77.30
2018-06-25T19:31:32.723Z,77.20
2018-06-25T19:34:05.724Z,78.00
2018-06-25T19:36:38.632Z,78.20
2018-06-25T19:39:15.054Z,77.10
2018-06-25T19:41:48.049Z,78.10
2018-06-25T19:44:20.956Z,78.40
2018-06-25T19:46:53.953Z,76.80
2018-06-25T19:49:27.007Z,77.80
2018-06-25T19:52:00.046Z,78.40
2018-06-25T19:54:34.628Z,76.70
2018-06-25T19:57:07.878Z,77.70
2018-06-25T19:59:41.278Z,78.40
2018-06-25T20:02:14.276Z,76.70
2018-06-25T20:04:48.480Z,77.90
2018-06-25T20:07:21.731Z,78.60
2018-06-25T20:09:54.735Z,77.40
2018-06-25T20:12:28.034Z,77.60
2018-06-25T20:15:00.997Z,78.40
2018-06-25T20:17:33.987Z,78.60
2018-06-25T20:20:08.454Z,77.00
2018-06-25T20:22:41.501Z,78.00
2018-06-25T20:25:14.498Z,78.50
2018-06-25T20:27:47.618Z,76.70
2018-06-25T20:30:20.671Z,77.70
2018-06-25T20:32:53.749Z,78.40
2018-06-25T20:35:26.749Z,78.50
2018-06-25T20:37:59.778Z,77.50
2018-06-25T20:40:32.869Z,78.40
2018-06-25T20:45:37.538Z,77.00
2018-06-25T20:48:10.878Z,78.20
2018-06-25T21:19:45.260Z,78.60
2018-06-25T21:22:19.082Z,78.30
2018-06-25T21:24:52.221Z,79.40
2018-06-25T21:27:26.149Z,77.40
2018-06-25T21:29:59.742Z,78.50
2018-06-25T21:32:32.755Z,79.80
2018-06-25T21:35:05.749Z,79.90
2018-06-25T21:37:38.837Z,78.10
2018-06-25T21:40:11.930Z,79.20
2018-06-25T21:42:46.047Z,79.70
2018-06-25T21:45:19.125Z,77.70
2018-06-25T21:47:52.189Z,79.10
2018-06-25T21:50:25.077Z,79.60
2018-06-25T21:52:58.161Z,80.10
2018-06-25T21:55:31.966Z,78.30
2018-06-25T21:58:04.941Z,79.10
2018-06-25T22:00:46.852Z,80.40
2018-06-25T22:03:19.928Z,80.00
2018-06-25T22:05:52.845Z,78.20
2018-06-25T22:08:25.920Z,79.30
2018-06-25T22:10:59.053Z,79.80
2018-06-25T22:13:32.196Z,78.30
2018-06-25T22:16:05.256Z,78.60
2018-06-25T22:18:38.320Z,79.20
2018-06-25T22:21:11.270Z,79.60
2018-06-25T22:23:44.141Z,77.40
2018-06-25T22:28:48.763Z,79.20
2018-06-25T22:31:21.694Z,79.90
2018-06-25T22:33:54.694Z,78.30
2018-06-25T22:36:27.667Z,78.70
2018-06-25T22:39:00.604Z,79.30
2018-06-25T22:41:33.609Z,79.70
2018-06-25T22:44:14.457Z,78.20
2018-06-25T22:46:47.434Z,79.60
2018-06-25T22:49:20.338Z,79.40
2018-06-25T22:51:53.261Z,77.80
2018-06-25T22:54:26.984Z,78.80
2018-06-25T22:56:59.989Z,78.90
2018-06-25T22:59:33.021Z,79.50
2018-06-25T23:02:05.956Z,77.70
2018-06-25T23:04:38.907Z,78.50
2018-06-25T23:07:11.889Z,79.10
2018-06-25T23:09:44.855Z,79.70
2018-06-25T23:12:18.869Z,77.80
2018-06-25T23:14:53.079Z,78.10
2018-06-25T23:17:25.966Z,78.50
2018-06-25T23:19:58.965Z,78.90
2018-06-25T23:25:03.314Z,78.20
2018-06-25T23:27:36.341Z,78.50
2018-06-25T23:30:09.618Z,79.10
2018-06-25T23:32:42.607Z,79.40
2018-06-25T23:35:15.644Z,77.70
2018-06-25T23:37:48.675Z,78.60
2018-06-25T23:40:21.716Z,78.90
2018-06-25T23:42:54.718Z,79.40
2018-06-25T23:45:28.695Z,77.80
2018-06-25T23:48:01.656Z,78.40
2018-06-25T23:50:34.553Z,78.90
2018-06-25T23:53:07.567Z,79.70
2018-06-25T23:55:40.712Z,79.70
2018-06-25T23:58:13.872Z,79.70
